| time (UTC) | temp F | wind direction | speed MPH | gust MPH | rain 1hr in | rain 24hr in | rain mn in | humidity % | barometer mb |
| 20260503005624 | 51 | 22 | 0.0 | 2.0 | 0.00 | 0.00 | 0.77 | 99 | 1005.8 |
| 20260503005156 | 51 | 318 | 1.0 | 2.0 | 0.00 | 0.00 | 0.77 | 99 | 1005.8 |
| 20260503004304 | 51 | 327 | 1.0 | 2.0 | 0.00 | 0.00 | 0.77 | 100 | 1005.8 |
| 20260503003624 | 51 | 166 | 1.0 | 2.0 | 0.00 | 0.00 | 0.77 | 99 | 1005.4 |
| 20260503002944 | 51 | 157 | 1.0 | 2.0 | 0.00 | 0.00 | 0.77 | 99 | 1005.4 |
| 20260503002305 | 51 | 214 | 1.0 | 2.0 | 0.00 | 0.00 | 0.77 | 99 | 1005.4 |
| 20260503001624 | 51 | 43 | 1.0 | 1.0 | 0.00 | 0.00 | 0.77 | 97 | 1005.4 |
| 20260503001155 | 51 | 76 | 1.0 | 1.0 | 0.00 | 0.00 | 0.77 | 96 | 1005.4 |
| 20260503000516 | 52 | 329 | 1.0 | 2.0 | 0.00 | 0.00 | 0.77 | 97 | 1005.4 |
| 20260502235625 | 52 | 327 | 1.0 | 2.0 | 0.00 | 0.00 | 0.77 | 95 | 1005.1 |
| 20260502235157 | 52 | 327 | 1.0 | 2.0 | 0.00 | 0.00 | 0.77 | 92 | 1005.1 |
| 20260502234304 | 51 | 353 | 1.0 | 2.0 | 0.00 | 0.00 | 0.77 | 92 | 1005.1 |
| 20260502233624 | 51 | 43 | 1.0 | 2.0 | 0.00 | 0.00 | 0.77 | 91 | 1005.1 |
| 20260502232944 | 52 | 44 | 1.0 | 2.0 | 0.00 | 0.00 | 0.77 | 94 | 1005.1 |
| 20260502232305 | 52 | 352 | 1.0 | 2.0 | 0.00 | 0.00 | 0.77 | 91 | 1005.1 |
| 20260502231624 | 52 | 351 | 1.0 | 2.0 | 0.00 | 0.00 | 0.77 | 91 | 1005.1 |
| 20260502230944 | 52 | 352 | 1.0 | 3.0 | 0.00 | 0.00 | 0.77 | 89 | 1005.1 |
| 20260502230304 | 52 | 312 | 2.0 | 3.0 | 0.00 | 0.00 | 0.77 | 88 | 1005.1 |
| 20260502225624 | 52 | 29 | 1.0 | 3.0 | 0.00 | 0.00 | 0.77 | 89 | 1005.1 |
| 20260502224944 | 52 | 35 | 1.0 | 3.0 | 0.00 | 0.00 | 0.77 | 88 | 1005.1 |
| 20260502224304 | 52 | 338 | 1.0 | 4.0 | 0.00 | 0.00 | 0.77 | 85 | 1005.1 |
| 20260502223624 | 52 | 334 | 1.0 | 5.0 | 0.00 | 0.00 | 0.77 | 86 | 1005.1 |
| 20260502222944 | 52 | 9 | 2.0 | 6.0 | 0.00 | 0.00 | 0.77 | 86 | 1004.7 |
| 20260502222305 | 52 | 40 | 2.0 | 5.0 | 0.00 | 0.00 | 0.77 | 87 | 1004.7 |
| 20260502221624 | 52 | 23 | 3.0 | 5.0 | 0.00 | 0.00 | 0.77 | 88 | 1004.7 |
| 20260502220944 | 52 | 12 | 2.0 | 8.0 | 0.00 | 0.00 | 0.77 | 87 | 1004.7 |
| 20260502220517 | 52 | 32 | 4.0 | 8.0 | 0.00 | 0.00 | 0.77 | 86 | 1004.7 |
| 20260502215625 | 53 | 346 | 3.0 | 5.0 | 0.00 | 0.00 | 0.77 | 88 | 1004.4 |
| 20260502214944 | 53 | 12 | 1.0 | 4.0 | 0.00 | 0.00 | 0.77 | 90 | 1004.4 |
| 20260502214304 | 52 | 52 | 2.0 | 7.0 | 0.00 | 0.00 | 0.77 | 91 | 1004.4 |
| 20260502213624 | 53 | 24 | 3.0 | 6.0 | 0.00 | 0.00 | 0.77 | 89 | 1004.7 |
| 20260502212944 | 53 | 326 | 4.0 | 8.0 | 0.00 | 0.00 | 0.77 | 90 | 1004.7 |
| 20260502212305 | 53 | 332 | 4.0 | 8.0 | 0.00 | 0.00 | 0.77 | 89 | 1004.7 |
| 20260502211624 | 53 | 329 | 5.0 | 8.0 | 0.00 | 0.00 | 0.77 | 88 | 1004.7 |
| 20260502210944 | 53 | 328 | 5.0 | 9.0 | 0.00 | 0.00 | 0.77 | 89 | 1004.7 |
| 20260502210518 | 53 | 331 | 5.0 | 9.0 | 0.00 | 0.00 | 0.77 | 88 | 1004.7 |
| 20260502205833 | 53 | 308 | 5.0 | 9.0 | 0.00 | 0.00 | 0.77 | 86 | 1004.7 |
| 20260502204945 | 53 | 319 | 3.0 | 8.0 | 0.00 | 0.00 | 0.76 | 94 | 1004.4 |
| 20260502204304 | 53 | 335 | 5.0 | 8.0 | 0.00 | 0.00 | 0.76 | 91 | 1004.4 |
| 20260502203624 | 53 | 340 | 5.0 | 8.0 | 0.00 | 0.00 | 0.76 | 92 | 1004.7 |
| 20260502202944 | 53 | 326 | 5.0 | 10.0 | 0.00 | 0.00 | 0.76 | 92 | 1004.7 |
| 20260502202305 | 53 | 335 | 4.0 | 11.0 | 0.00 | 0.00 | 0.76 | 92 | 1004.7 |
| 20260502201624 | 53 | 332 | 6.0 | 11.0 | 0.00 | 0.00 | 0.76 | 90 | 1004.7 |
| 20260502200945 | 53 | 334 | 4.0 | 12.0 | 0.00 | 0.00 | 0.76 | 91 | 1004.7 |
| 20260502200305 | 53 | 327 | 8.0 | 12.0 | 0.00 | 0.00 | 0.76 | 88 | 1004.7 |
| 20260502195624 | 53 | 328 | 6.0 | 10.0 | 0.00 | 0.00 | 0.76 | 90 | 1004.7 |
| 20260502195154 | 53 | 5 | 4.0 | 10.0 | 0.00 | 0.00 | 0.76 | 90 | 1004.7 |
| 20260502194305 | 53 | 349 | 2.0 | 8.0 | 0.00 | 0.00 | 0.76 | 93 | 1004.7 |
| 20260502193836 | 52 | 2 | 4.0 | 11.0 | 0.00 | 0.00 | 0.76 | 93 | 1004.7 |
| 20260502192944 | 52 | 329 | 6.0 | 10.0 | 0.00 | 0.00 | 0.75 | 92 | 1005.1 |
| 20260502192305 | 52 | 324 | 5.0 | 8.0 | 0.00 | 0.00 | 0.75 | 93 | 1005.1 |
| 20260502191624 | 52 | 343 | 3.0 | 8.0 | 0.00 | 0.00 | 0.75 | 92 | 1005.4 |
| 20260502191153 | 52 | 323 | 4.0 | 10.0 | 0.00 | 0.00 | 0.74 | 92 | 1005.1 |
| 20260502190304 | 53 | 1 | 4.0 | 9.0 | 0.00 | 0.00 | 0.73 | 90 | 1005.1 |
| 20260502185624 | 52 | 26 | 3.0 | 12.0 | 0.00 | 0.00 | 0.73 | 92 | 1005.1 |
| 20260502185155 | 52 | 30 | 4.0 | 12.0 | 0.00 | 0.00 | 0.73 | 93 | 1005.4 |
| 20260502184516 | 52 | 40 | 5.0 | 13.0 | 0.00 | 0.00 | 0.72 | 90 | 1005.1 |
| 20260502183624 | 52 | 334 | 7.0 | 13.0 | 0.00 | 0.00 | 0.72 | 91 | 1005.1 |
| 20260502182944 | 52 | 3 | 4.0 | 10.0 | 0.00 | 0.00 | 0.70 | 93 | 1005.1 |
| 20260502182305 | 52 | 359 | 5.0 | 10.0 | 0.00 | 0.00 | 0.70 | 92 | 1005.4 |
| 20260502181833 | 52 | 31 | 4.0 | 12.0 | 0.00 | 0.00 | 0.70 | 93 | 1005.4 |
| 20260502180944 | 52 | 40 | 6.0 | 12.0 | 0.00 | 0.00 | 0.70 | 91 | 1005.1 |
| 20260502180304 | 52 | 34 | 5.0 | 10.0 | 0.00 | 0.00 | 0.69 | 90 | 1005.1 |
| 20260502170304 | 52 | 22 | 5.0 | 11.0 | 0.00 | 0.00 | 0.67 | 94 | 1005.4 |
| 20260502164304 | 51 | 17 | 4.0 | 11.0 | 0.00 | 0.00 | 0.65 | 93 | 1006.1 |
| 20260502163838 | 52 | 22 | 5.0 | 13.0 | 0.00 | 0.00 | 0.64 | 92 | 1006.1 |
| 20260502162944 | 52 | 38 | 2.0 | 12.0 | 0.00 | 0.00 | 0.63 | 93 | 1006.4 |
| 20260502162305 | 52 | 19 | 4.0 | 13.0 | 0.00 | 0.00 | 0.61 | 94 | 1006.4 |
| 20260502161624 | 52 | 359 | 6.0 | 10.0 | 0.00 | 0.00 | 0.59 | 92 | 1006.4 |
| 20260502160944 | 52 | 21 | 5.0 | 10.0 | 0.00 | 0.00 | 0.58 | 93 | 1006.8 |
| 20260502160304 | 52 | 22 | 4.0 | 10.0 | 0.00 | 0.00 | 0.57 | 92 | 1006.8 |
| 20260502152305 | 53 | 360 | 4.0 | 12.0 | 0.00 | 0.00 | 0.54 | 96 | 1005.8 |
| 20260502151835 | 52 | 351 | 5.0 | 12.0 | 0.00 | 0.00 | 0.53 | 96 | 1005.8 |
| 20260502150944 | 53 | 15 | 3.0 | 7.0 | 0.00 | 0.00 | 0.50 | 97 | 1006.1 |
| 20260502150516 | 53 | 9 | 3.0 | 8.0 | 0.00 | 0.00 | 0.48 | 98 | 1006.4 |
| 20260502130302 | 53 | 24 | 3.0 | 8.0 | 0.00 | 0.00 | 0.25 | 95 | 1005.1 |
| 20260502122942 | 53 | 347 | 4.0 | 9.0 | 0.00 | 0.00 | 0.22 | 93 | 1005.1 |
| 20260502122305 | 52 | 323 | 4.0 | 9.0 | 0.00 | 0.00 | 0.22 | 93 | 1005.1 |
| 20260502121832 | 52 | 334 | 4.0 | 9.0 | 0.00 | 0.00 | 0.21 | 93 | 1005.1 |
| 20260502120943 | 52 | 330 | 5.0 | 9.0 | 0.00 | 0.00 | 0.20 | 93 | 1004.7 |
| 20260502120303 | 52 | 342 | 3.0 | 8.0 | 0.00 | 0.00 | 0.20 | 92 | 1005.1 |
| 20260502115622 | 53 | 336 | 3.0 | 9.0 | 0.00 | 0.00 | 0.19 | 92 | 1005.1 |
| 20260502114943 | 53 | 341 | 3.0 | 10.0 | 0.00 | 0.00 | 0.18 | 91 | 1005.1 |
| 20260502114515 | 53 | 325 | 4.0 | 8.0 | 0.00 | 0.00 | 0.17 | 92 | 1005.1 |
| 20260502113623 | 53 | 325 | 5.0 | 9.0 | 0.00 | 0.00 | 0.15 | 91 | 1005.1 |
| 20260502112942 | 53 | 324 | 5.0 | 12.0 | 0.00 | 0.00 | 0.14 | 91 | 1005.1 |
| 20260502112305 | 53 | 325 | 4.0 | 11.0 | 0.00 | 0.00 | 0.14 | 91 | 1005.1 |
| 20260502111833 | 53 | 313 | 5.0 | 10.0 | 0.00 | 0.00 | 0.13 | 91 | 1005.1 |
| 20260502110943 | 53 | 307 | 6.0 | 10.0 | 0.00 | 0.00 | 0.12 | 90 | 1005.1 |
| 20260502110514 | 54 | 317 | 5.0 | 9.0 | 0.00 | 0.00 | 0.10 | 91 | 1005.1 |
| 20260502105834 | 54 | 309 | 5.0 | 12.0 | 0.00 | 0.00 | 0.08 | 91 | 1005.1 |
| 20260502105155 | 54 | 309 | 6.0 | 12.0 | 0.00 | 0.00 | 0.07 | 90 | 1005.1 |
| 20260502104302 | 54 | 293 | 6.0 | 10.0 | 0.00 | 0.00 | 0.04 | 89 | 1005.1 |
| 20260502103623 | 54 | 310 | 5.0 | 10.0 | 0.00 | 0.00 | 0.03 | 89 | 1005.1 |
| 20260502102942 | 54 | 309 | 4.0 | 7.0 | 0.00 | 0.00 | 0.01 | 88 | 1005.1 |
| 20260502102305 | 54 | 248 | 2.0 | 5.0 | 0.00 | 0.00 | 0.01 | 90 | 1005.1 |
| 20260502100942 | 53 | 302 | 3.0 | 5.0 | 0.00 | 0.00 | 0.00 | 92 | 1004.7 |
| 20260502100302 | 53 | 311 | 3.0 | 5.0 | 0.00 | 0.00 | 0.00 | 92 | 1004.7 |
| 20260502090942 | 54 | 313 | 2.0 | 5.0 | 0.00 | 0.00 | 0.00 | 90 | 1005.1 |
| 20260502090302 | 53 | 345 | 2.0 | 5.0 | 0.00 | 0.00 | 0.00 | 90 | 1004.7 |
| 20260502070943 | 53 | 330 | 3.0 | 4.0 | 0.00 | 0.00 | 0.00 | 92 | 1004.4 |
| 20260502070303 | 52 | 317 | 2.0 | 4.0 | 0.00 | 0.00 | 0.00 | 94 | 1004.4 |
| 20260502065623 | 52 | 313 | 4.0 | 4.0 | 0.00 | 0.00 | 0.00 | 94 | 1004.4 |
| 20260502064943 | 53 | 312 | 2.0 | 3.0 | 0.00 | 0.00 | 0.00 | 94 | 1004.4 |
| 20260502064303 | 53 | 295 | 2.0 | 3.0 | 0.00 | 0.00 | 0.00 | 94 | 1004.4 |
| 20260502063834 | 53 | 357 | 1.0 | 2.0 | 0.00 | 0.00 | 0.00 | 95 | 1004.4 |
| 20260502062943 | 53 | 4 | 1.0 | 2.0 | 0.00 | 0.00 | 0.00 | 94 | 1004.7 |
| 20260502062515 | 53 | 317 | 1.0 | 2.0 | 0.00 | 0.00 | 0.00 | 93 | 1004.7 |
| 20260502061624 | 53 | 76 | 0.0 | 2.0 | 0.00 | 0.00 | 0.00 | 95 | 1005.1 |
| 20260502060943 | 53 | 254 | 0.0 | 2.0 | 0.00 | 0.00 | 0.00 | 94 | 1005.1 |
| 20260502060303 | 53 | 335 | 1.0 | 2.0 | 0.00 | 0.00 | 0.00 | 93 | 1005.1 |
| 20260502055623 | 53 | 274 | 1.0 | 2.0 | 0.00 | 0.00 | 0.00 | 95 | 1005.1 |
| 20260502054943 | 52 | 306 | 1.0 | 2.0 | 0.00 | 0.00 | 0.00 | 95 | 1005.1 |
| 20260502054514 | 52 | 301 | 2.0 | 2.0 | 0.00 | 0.00 | 0.00 | 95 | 1005.1 |
| 20260502053623 | 52 | 312 | 1.0 | 2.0 | 0.00 | 0.00 | 0.00 | 96 | 1005.1 |
| 20260502052943 | 52 | 315 | 2.0 | 2.0 | 0.00 | 0.00 | 0.00 | 96 | 1005.1 |
| 20260502052306 | 52 | 306 | 2.0 | 3.0 | 0.00 | 0.00 | 0.00 | 96 | 1005.1 |
| 20260502051836 | 52 | 311 | 1.0 | 2.0 | 0.00 | 0.00 | 0.00 | 96 | 1005.4 |
| 20260502050943 | 52 | 309 | 1.0 | 2.0 | 0.00 | 0.00 | 0.00 | 95 | 1005.4 |
| 20260502050513 | 52 | 339 | 1.0 | 2.0 | 0.00 | 0.00 | 0.00 | 96 | 1005.4 |
| 20260502045623 | 52 | 307 | 1.0 | 2.0 | 0.00 | 0.00 | 0.00 | 96 | 1005.4 |
| 20260502044943 | 52 | 329 | 1.0 | 2.0 | 0.00 | 0.00 | 0.00 | 96 | 1005.4 |
| 20260502044303 | 52 | 323 | 2.0 | 2.0 | 0.00 | 0.00 | 0.00 | 96 | 1005.4 |
| 20260502043623 | 52 | 330 | 1.0 | 2.0 | 0.00 | 0.00 | 0.00 | 96 | 1005.8 |
| 20260502042944 | 52 | 329 | 1.0 | 2.0 | 0.00 | 0.00 | 0.00 | 96 | 1005.8 |
| 20260502042305 | 52 | 8 | 0.0 | 1.0 | 0.00 | 0.00 | 0.00 | 97 | 1005.8 |
| 20260502041624 | 52 | 120 | 0.0 | 2.0 | 0.00 | 0.00 | 0.00 | 97 | 1005.8 |
| 20260502040944 | 52 | 316 | 1.0 | 2.0 | 0.00 | 0.00 | 0.00 | 97 | 1005.8 |
| 20260502040513 | 52 | 329 | 1.0 | 1.0 | 0.00 | 0.00 | 0.00 | 97 | 1005.8 |
| 20260502035623 | 52 | 41 | 1.0 | 2.0 | 0.00 | 0.00 | 0.09 | 97 | 1005.4 |
| 20260502034943 | 52 | 350 | 1.0 | 3.0 | 0.00 | 0.00 | 0.09 | 97 | 1005.8 |
| 20260502034303 | 52 | 341 | 1.0 | 3.0 | 0.00 | 0.00 | 0.09 | 97 | 1005.8 |
| 20260502033623 | 51 | 328 | 1.0 | 2.0 | 0.00 | 0.00 | 0.09 | 97 | 1006.1 |
| 20260502032943 | 51 | 321 | 1.0 | 2.0 | 0.00 | 0.00 | 0.09 | 98 | 1006.1 |
| 20260502032305 | 51 | 315 | 1.0 | 1.0 | 0.00 | 0.00 | 0.09 | 99 | 1006.1 |
| 20260502031833 | 51 | 5 | 1.0 | 1.0 | 0.00 | 0.00 | 0.09 | 99 | 1006.1 |
| 20260502030943 | 51 | 345 | 1.0 | 2.0 | 0.00 | 0.00 | 0.09 | 99 | 1006.1 |
| 20260502030304 | 51 | 44 | 1.0 | 2.0 | 0.00 | 0.00 | 0.09 | 98 | 1006.1 |
| 20260502025834 | 51 | 67 | 1.0 | 2.0 | 0.00 | 0.00 | 0.09 | 98 | 1006.1 |
| 20260502025155 | 51 | 228 | 1.0 | 2.0 | 0.00 | 0.00 | 0.09 | 98 | 1006.4 |
| 20260502024303 | 51 | 147 | 1.0 | 2.0 | 0.00 | 0.00 | 0.09 | 98 | 1006.4 |
| 20260502023624 | 51 | 184 | 1.0 | 2.0 | 0.00 | 0.00 | 0.09 | 98 | 1006.4 |
| 20260502022944 | 51 | 219 | 1.0 | 2.0 | 0.00 | 0.00 | 0.09 | 98 | 1006.4 |
| 20260502022513 | 51 | 81 | 1.0 | 2.0 | 0.00 | 0.00 | 0.09 | 97 | 1006.1 |
| 20260502021623 | 51 | 113 | 1.0 | 2.0 | 0.00 | 0.00 | 0.09 | 97 | 1006.1 |
| 20260502020943 | 52 | 192 | 0.0 | 2.0 | 0.00 | 0.00 | 0.09 | 97 | 1006.4 |
| 20260502020303 | 51 | 289 | 1.0 | 1.0 | 0.00 | 0.00 | 0.09 | 96 | 1006.4 |
| 20260502015623 | 51 | 340 | 1.0 | 2.0 | 0.00 | 0.00 | 0.09 | 96 | 1006.4 |
| 20260502014943 | 51 | 57 | 1.0 | 2.0 | 0.00 | 0.00 | 0.09 | 96 | 1006.4 |
| 20260502014303 | 52 | 314 | 1.0 | 3.0 | 0.00 | 0.00 | 0.09 | 96 | 1006.4 |
| 20260502013624 | 52 | 313 | 1.0 | 4.0 | 0.00 | 0.00 | 0.09 | 96 | 1006.4 |
| 20260502012943 | 52 | 317 | 3.0 | 4.0 | 0.00 | 0.00 | 0.09 | 96 | 1006.4 |
| 20260502012306 | 52 | 297 | 2.0 | 3.0 | 0.00 | 0.00 | 0.09 | 95 | 1006.4 |
| 20260502011834 | 52 | 340 | 1.0 | 2.0 | 0.00 | 0.00 | 0.09 | 93 | 1006.1 |
| 20260502010943 | 53 | 70 | 1.0 | 2.0 | 0.00 | 0.00 | 0.09 | 93 | 1006.1 |
| 20260502010304 | 53 | 100 | 1.0 | 2.0 | 0.00 | 0.00 | 0.09 | 92 | 1006.1 |